Time;durP1;ratioP1;P1;durP2;ratioP2;P2;SDS_P1;SDS_P2;PMS_P1;PMS_P2;Temp;Humidity;BMP_temperature;BMP_pressure;BME280_temperature;BME280_humidity;BME280_pressure;Samples;Min_cycle;Max_cycle;Signal;HPM_P1;HPM_P2
2022/06/02 00:02:32;;;;;;;10.73;6.60;;;;;;;;;;6188879;23;20008;-82
2022/06/02 00:05:22;;;;;;;10.13;6.20;;;;;;;;;;6191052;23;20011;-81
2022/06/02 00:08:00;;;;;;;11.10;6.15;;;;;;;;;;6192066;23;20007;-82
2022/06/02 00:10:44;;;;;;;10.80;6.38;;;;;;;;;;6188351;23;20001;-82
2022/06/02 00:13:36;;;;;;;9.32;6.15;;;;;;;;;;6188604;23;20015;-82
2022/06/02 00:16:05;;;;;;;10.90;6.38;;;;;;;;;;6168599;23;20012;-82
2022/06/02 00:18:53;;;;;;;9.27;6.97;;;;;;;;;;6213183;23;20028;-81
2022/06/02 00:21:27;;;;;;;11.70;6.65;;;;;;;;;;6187816;23;20012;-81
2022/06/02 00:24:30;;;;;;;10.68;6.80;;;;;;;;;;6214526;23;20005;-81
2022/06/02 00:27:14;;;;;;;12.50;6.55;;;;;;;;;;6194543;23;20012;-82
2022/06/02 00:30:08;;;;;;;11.55;7.40;;;;;;;;;;6188015;23;20000;-82
2022/06/02 00:32:47;;;;;;;13.82;6.63;;;;;;;;;;6214529;23;20012;-81
2022/06/02 00:35:26;;;;;;;12.30;8.05;;;;;;;;;;6165305;23;20101;-81
2022/06/02 00:38:04;;;;;;;11.95;6.40;;;;;;;;;;6188064;23;20055;-81
2022/06/02 00:40:30;;;;;;;12.98;6.82;;;;;;;;;;6163821;23;20001;-81
2022/06/02 00:43:02;;;;;;;15.23;7.38;;;;;;;;;;6187688;23;20039;-81
2022/06/02 00:45:27;;;;;;;12.57;7.30;;;;;;;;;;6214238;23;20043;-82
2022/06/02 00:48:15;;;;;;;12.70;7.50;;;;;;;;;;6214767;23;20001;-81
2022/06/02 00:50:57;;;;;;;12.90;7.78;;;;;;;;;;6195684;23;20012;-81
2022/06/02 01:00:07;;;;;;;15.52;7.38;;;;;;;;;;6214205;23;20351;-82
2022/06/02 01:02:44;;;;;;;14.90;7.85;;;;;;;;;;6213935;23;20420;-81
2022/06/02 01:05:10;;;;;;;15.73;8.30;;;;;;;;;;6165545;23;19996;-81
2022/06/02 01:08:00;;;;;;;18.90;7.75;;;;;;;;;;6187811;23;20001;-82
2022/06/02 01:10:47;;;;;;;14.68;8.07;;;;;;;;;;6170251;23;20001;-80
2022/06/02 01:13:15;;;;;;;11.88;7.80;;;;;;;;;;6217339;23;20388;-82
2022/06/02 01:15:40;;;;;;;13.80;8.25;;;;;;;;;;6214131;23;20075;-82
2022/06/02 01:18:29;;;;;;;12.02;7.60;;;;;;;;;;6214215;23;20469;-82
2022/06/02 01:20:57;;;;;;;14.45;8.50;;;;;;;;;;6167059;23;20008;-81
2022/06/02 01:23:53;;;;;;;20.20;10.73;;;;;;;;;;6187683;23;20015;-82
2022/06/02 01:26:43;;;;;;;18.75;9.95;;;;;;;;;;6214128;23;20442;-81
2022/06/02 01:29:28;;;;;;;18.40;9.93;;;;;;;;;;6214239;23;20004;-81
2022/06/02 01:31:58;;;;;;;14.48;9.57;;;;;;;;;;6214351;23;20506;-81
2022/06/02 01:34:23;;;;;;;;;;;;;;;;;;6192472;23;20009;-82
2022/06/02 01:36:50;;;;;;;13.25;8.68;;;;;;;;;;6214684;23;19954;-81
2022/06/02 01:39:31;;;;;;;18.65;8.55;;;;;;;;;;6187019;23;20036;-82
2022/06/02 01:42:35;;;;;;;17.13;8.25;;;;;;;;;;6214068;23;20055;-81
2022/06/02 01:45:21;;;;;;;12.60;8.40;;;;;;;;;;6187395;23;20001;-81
2022/06/02 01:47:47;;;;;;;16.02;8.88;;;;;;;;;;6187729;23;20004;-81
2022/06/02 01:50:43;;;;;;;15.80;9.15;;;;;;;;;;6187671;23;20026;-81
2022/06/02 01:53:45;;;;;;;16.98;9.15;;;;;;;;;;6168480;23;20028;-81
2022/06/02 01:56:30;;;;;;;22.58;9.32;;;;;;;;;;6217647;23;20079;-82
2022/06/02 01:59:07;;;;;;;21.10;8.82;;;;;;;;;;6190022;23;20004;-81
2022/06/02 02:01:42;;;;;;;16.67;9.00;;;;;;;;;;6190495;23;20380;-81
2022/06/02 02:04:32;;;;;;;13.95;9.35;;;;;;;;;;6214751;23;20012;-80
2022/06/02 02:07:11;;;;;;;15.43;9.23;;;;;;;;;;6165836;23;20350;-80
2022/06/02 02:09:45;;;;;;;16.88;10.00;;;;;;;;;;6190014;23;20007;-81
2022/06/02 02:12:57;;;;;;;17.35;8.98;;;;;;;;;;6215679;23;20038;-83
2022/06/02 02:15:55;;;;;;;12.90;8.88;;;;;;;;;;6215694;23;20078;-81
2022/06/02 02:18:31;;;;;;;15.80;8.68;;;;;;;;;;6195239;23;20032;-80
2022/06/02 02:21:15;;;;;;;13.07;8.50;;;;;;;;;;6219330;23;20001;-81
2022/06/02 02:24:33;;;;;;;13.15;8.55;;;;;;;;;;6215811;23;20088;-82
2022/06/02 02:27:10;;;;;;;18.70;9.00;;;;;;;;;;6094656;23;20457;-80
2022/06/02 02:29:57;;;;;;;15.48;9.40;;;;;;;;;;6047324;23;20017;-82
2022/06/02 02:32:45;;;;;;;16.00;9.85;;;;;;;;;;6177136;23;20415;-81
2022/06/02 02:35:13;;;;;;;18.77;10.57;;;;;;;;;;6165087;23;20155;-81
2022/06/02 02:37:57;;;;;;;14.45;9.13;;;;;;;;;;6215403;23;20023;-81
2022/06/02 02:40:43;;;;;;;17.42;9.25;;;;;;;;;;6189080;23;20007;-81
2022/06/02 02:43:23;;;;;;;29.75;10.40;;;;;;;;;;6192727;23;20083;-81
2022/06/02 02:46:13;;;;;;;20.83;9.70;;;;;;;;;;6190418;23;20007;-81
2022/06/02 02:48:51;;;;;;;17.50;10.52;;;;;;;;;;6188852;23;20008;-81
2022/06/02 02:51:47;;;;;;;21.40;10.13;;;;;;;;;;6215028;23;20001;-81
2022/06/02 02:54:17;;;;;;;21.13;9.05;;;;;;;;;;6164358;23;20015;-81
2022/06/02 02:56:54;;;;;;;16.85;10.15;;;;;;;;;;6189422;23;20016;-81
2022/06/02 02:59:32;;;;;;;19.13;10.02;;;;;;;;;;6215630;23;20063;-81
2022/06/02 03:02:32;;;;;;;25.15;10.15;;;;;;;;;;6190826;23;19997;-80
2022/06/02 03:05:04;;;;;;;20.30;9.65;;;;;;;;;;6190752;23;20083;-81
2022/06/02 03:07:29;;;;;;;16.73;10.02;;;;;;;;;;6215438;23;20005;-81
2022/06/02 03:10:10;;;;;;;21.83;10.10;;;;;;;;;;6224983;23;20000;-82
2022/06/02 03:12:40;;;;;;;19.77;10.50;;;;;;;;;;6212348;23;20009;-80
2022/06/02 03:15:34;;;;;;;20.50;10.05;;;;;;;;;;6215004;23;20043;-80
2022/06/02 03:18:25;;;;;;;19.92;9.85;;;;;;;;;;6241269;23;20020;-82
2022/06/02 03:21:10;;;;;;;18.52;10.05;;;;;;;;;;6174049;23;20099;-82
2022/06/02 03:24:03;;;;;;;17.02;10.05;;;;;;;;;;6166674;23;20090;-82
2022/06/02 03:26:52;;;;;;;16.33;9.88;;;;;;;;;;6196798;23;20000;-80
2022/06/02 03:29:35;;;;;;;16.27;9.38;;;;;;;;;;6220628;23;20408;-82
2022/06/02 03:32:13;;;;;;;17.35;10.18;;;;;;;;;;6189704;23;20012;-81
2022/06/02 03:35:05;;;;;;;17.77;10.13;;;;;;;;;;6214784;23;20001;-81
2022/06/02 03:37:34;;;;;;;25.02;11.07;;;;;;;;;;6213847;23;20066;-82
2022/06/02 03:40:11;;;;;;;20.02;10.23;;;;;;;;;;6215003;23;20484;-82
2022/06/02 03:42:52;;;;;;;16.20;9.95;;;;;;;;;;6214832;23;20394;-82
2022/06/02 03:45:23;;;;;;;19.52;10.98;;;;;;;;;;6214880;23;20055;-82
2022/06/02 03:47:57;;;;;;;19.17;9.57;;;;;;;;;;6214916;23;20008;-81
2022/06/02 03:50:26;;;;;;;22.73;11.15;;;;;;;;;;6221902;23;20320;-81
2022/06/02 03:53:13;;;;;;;21.55;8.95;;;;;;;;;;6214786;23;20036;-82
2022/06/02 03:56:05;;;;;;;22.00;11.60;;;;;;;;;;6214801;23;20068;-81
2022/06/02 03:58:58;;;;;;;15.93;9.75;;;;;;;;;;6168874;23;20008;-82
2022/06/02 04:01:39;;;;;;;23.88;10.90;;;;;;;;;;6214657;23;20497;-81
2022/06/02 04:04:32;;;;;;;17.15;10.02;;;;;;;;;;6188923;23;20000;-82
2022/06/02 04:07:06;;;;;;;20.70;10.73;;;;;;;;;;6192853;23;20040;-81
2022/06/02 04:09:47;;;;;;;28.35;10.77;;;;;;;;;;6214723;23;20000;-82
2022/06/02 04:15:30;;;;;;;18.20;9.40;;;;;;;;;;6214905;23;20107;-82
2022/06/02 04:18:07;;;;;;;21.02;9.82;;;;;;;;;;6188093;23;20001;-82
2022/06/02 04:20:40;;;;;;;27.95;11.13;;;;;;;;;;6214235;23;20434;-81
2022/06/02 04:23:26;;;;;;;29.75;11.52;;;;;;;;;;6163440;23;20340;-82
2022/06/02 04:26:10;;;;;;;23.60;10.48;;;;;;;;;;6163597;23;20000;-81
2022/06/02 04:28:57;;;;;;;22.55;9.68;;;;;;;;;;6214897;23;20001;-81
2022/06/02 04:31:29;;;;;;;20.27;10.15;;;;;;;;;;6187809;23;19997;-82
2022/06/02 04:34:29;;;;;;;22.42;10.15;;;;;;;;;;6186969;23;20004;-82
2022/06/02 04:37:06;;;;;;;18.83;10.23;;;;;;;;;;6191475;23;20007;-83
2022/06/02 04:39:44;;;;;;;23.67;10.25;;;;;;;;;;6216769;23;20001;-83
2022/06/02 04:42:37;;;;;;;25.35;9.65;;;;;;;;;;6163370;23;20026;-84
2022/06/02 04:45:34;;;;;;;18.08;9.68;;;;;;;;;;6190950;23;20062;-82
2022/06/02 04:48:18;;;;;;;24.73;10.95;;;;;;;;;;6191024;23;20001;-82
2022/06/02 04:50:51;;;;;;;17.13;9.48;;;;;;;;;;6211586;23;20252;-82
2022/06/02 04:53:38;;;;;;;16.63;9.35;;;;;;;;;;6161338;23;20011;-81
2022/06/02 04:56:13;;;;;;;21.70;9.27;;;;;;;;;;6210902;23;20025;-82
2022/06/02 04:58:50;;;;;;;23.92;9.90;;;;;;;;;;6194328;23;20471;-81
2022/06/02 05:01:44;;;;;;;27.27;10.65;;;;;;;;;;6162532;23;20063;-80
2022/06/02 05:04:25;;;;;;;17.85;9.82;;;;;;;;;;6184710;23;20408;-80
2022/06/02 05:06:56;;;;;;;18.48;10.18;;;;;;;;;;6213471;23;20216;-83
2022/06/02 05:09:52;;;;;;;22.13;10.30;;;;;;;;;;6215443;23;20005;-84
2022/06/02 05:13:02;;;;;;;21.23;13.48;;;;;;;;;;6185600;23;20004;-81
2022/06/02 05:15:42;;;;;;;26.75;12.98;;;;;;;;;;6214386;23;20004;-83
2022/06/02 05:18:32;;;;;;;27.48;13.02;;;;;;;;;;6162810;23;20408;-84
2022/06/02 05:21:16;;;;;;;;;;;;;;;;;;6194188;23;20013;-83
2022/06/02 05:24:08;;;;;;;22.10;12.35;;;;;;;;;;6187435;23;19916;-80
2022/06/02 05:26:58;;;;;;;21.77;12.30;;;;;;;;;;6207913;23;20009;-82
2022/06/02 05:29:42;;;;;;;25.85;11.15;;;;;;;;;;6184585;23;20008;-84
2022/06/02 05:32:26;;;;;;;19.88;10.55;;;;;;;;;;6227046;23;20000;-82
2022/06/02 05:35:11;;;;;;;17.45;9.60;;;;;;;;;;6215381;23;20023;-84
2022/06/02 05:38:13;;;;;;;14.95;9.13;;;;;;;;;;6212140;23;20008;-81
2022/06/02 05:41:15;;;;;;;14.00;9.48;;;;;;;;;;6209222;23;20016;-80
2022/06/02 05:43:59;;;;;;;20.60;9.52;;;;;;;;;;6145482;23;20058;-80
2022/06/02 05:46:55;;;;;;;15.30;8.30;;;;;;;;;;6209259;23;20058;-79
2022/06/02 05:50:02;;;;;;;16.30;9.43;;;;;;;;;;6208130;23;20012;-81
2022/06/02 05:52:49;;;;;;;18.05;9.50;;;;;;;;;;6181620;23;20615;-79
2022/06/02 05:55:33;;;;;;;15.45;9.25;;;;;;;;;;6161491;23;20001;-86
2022/06/02 05:58:21;;;;;;;14.23;9.13;;;;;;;;;;6161675;23;20024;-77
2022/06/02 06:01:12;;;;;;;15.02;9.63;;;;;;;;;;6181665;23;20375;-79
2022/06/02 06:04:18;;;;;;;17.48;9.65;;;;;;;;;;6187177;23;20024;-83
2022/06/02 06:06:53;;;;;;;24.50;13.07;;;;;;;;;;6214876;23;20003;-79
2022/06/02 06:10:01;;;;;;;12.77;8.93;;;;;;;;;;6162393;23;20013;-81
2022/06/02 06:12:57;;;;;;;19.27;11.23;;;;;;;;;;6066809;23;20088;-79
2022/06/02 06:15:50;;;;;;;15.80;9.95;;;;;;;;;;6091724;23;20444;-81
2022/06/02 06:18:39;;;;;;;17.90;9.93;;;;;;;;;;6176533;23;20060;-82
2022/06/02 06:21:13;;;;;;;18.20;10.80;;;;;;;;;;6189758;23;20005;-82
2022/06/02 06:23:48;;;;;;;19.52;10.25;;;;;;;;;;6191063;23;20303;-84
2022/06/02 06:26:52;;;;;;;19.33;11.63;;;;;;;;;;6187751;23;20055;-85
2022/06/02 06:29:49;;;;;;;22.23;14.55;;;;;;;;;;6108238;23;19994;-84
2022/06/02 06:35:36;;;;;;;26.55;12.32;;;;;;;;;;6275114;22;20062;-85
2022/06/02 06:38:48;;;;;;;;;;;;;;;;;;;;;
2022/06/02 06:42:02;;;;;;;18.77;10.75;;;;;;;;;;6272487;22;20038;-83
2022/06/02 06:45:31;;;;;;;23.98;12.80;;;;;;;;;;6249569;22;20015;-88
2022/06/02 06:48:34;;;;;;;20.83;14.10;;;;;;;;;;6121246;23;20123;-83
2022/06/02 06:56:42;;;;;;;13.77;10.75;;;;;;;;;;6272365;22;20026;-88
2022/06/02 06:59:28;;;;;;;16.02;9.60;;;;;;;;;;6263311;22;20066;-85
2022/06/02 07:02:46;;;;;;;;;;;;;;;;;;;;;
2022/06/02 07:05:59;;;;;;;22.10;10.10;;;;;;;;;;6278399;22;20012;-83
2022/06/02 07:09:03;;;;;;;19.42;10.93;;;;;;;;;;6253022;22;20004;-85
2022/06/02 07:18:07;;;;;;;19.63;10.23;;;;;;;;;;6286399;22;20026;-89
2022/06/02 07:20:54;;;;;;;15.57;10.23;;;;;;;;;;6283429;22;20442;-87
2022/06/02 07:23:38;;;;;;;12.95;9.30;;;;;;;;;;6256885;22;20008;-86
2022/06/02 07:26:40;;;;;;;15.02;9.07;;;;;;;;;;6250400;22;20566;-83
2022/06/02 07:29:23;;;;;;;14.45;9.18;;;;;;;;;;6233292;22;20061;-82
2022/06/02 07:32:09;;;;;;;20.27;9.52;;;;;;;;;;6249628;22;20054;-81
2022/06/02 07:35:16;;;;;;;15.23;9.07;;;;;;;;;;6277586;22;20007;-81
2022/06/02 07:38:17;;;;;;;14.25;9.90;;;;;;;;;;6250662;22;20023;-87
2022/06/02 07:40:55;;;;;;;22.38;12.10;;;;;;;;;;6246828;22;20046;-85
2022/06/02 07:43:49;;;;;;;13.40;9.73;;;;;;;;;;6251319;22;20011;-86
2022/06/02 07:46:26;;;;;;;16.15;9.45;;;;;;;;;;6249090;22;20039;-84
2022/06/02 07:49:03;;;;;;;15.15;9.55;;;;;;;;;;6272958;22;20078;-87
2022/06/02 07:51:45;;;;;;;13.75;10.13;;;;;;;;;;6276670;22;20386;-88
2022/06/02 07:54:38;;;;;;;22.02;10.75;;;;;;;;;;6277702;22;20025;-90
2022/06/02 07:57:16;;;;;;;15.88;9.10;;;;;;;;;;6284937;22;19992;-86
2022/06/02 08:00:03;;;;;;;14.18;9.38;;;;;;;;;;6292803;22;19995;-86
2022/06/02 08:02:54;;;;;;;16.95;8.80;;;;;;;;;;6284801;22;20113;-87
2022/06/02 08:05:40;;;;;;;20.67;11.63;;;;;;;;;;6255977;22;19999;-85
2022/06/02 08:08:18;;;;;;;17.30;10.25;;;;;;;;;;6253363;22;20002;-85
2022/06/02 08:11:03;;;;;;;12.15;8.82;;;;;;;;;;6254965;22;20499;-88
2022/06/02 08:14:11;;;;;;;22.80;11.75;;;;;;;;;;6203185;22;20119;-86
2022/06/02 08:17:20;;;;;;;19.02;9.20;;;;;;;;;;6101263;23;20056;-87
2022/06/02 08:19:53;;;;;;;12.13;7.63;;;;;;;;;;6242880;22;20011;-85
2022/06/02 08:22:25;;;;;;;11.60;7.78;;;;;;;;;;6244151;22;20031;-89
2022/06/02 08:24:56;;;;;;;13.40;8.25;;;;;;;;;;6225981;22;20003;-87
2022/06/02 08:28:06;;;;;;;14.23;6.88;;;;;;;;;;6252629;22;20000;-88
2022/06/02 08:30:46;;;;;;;11.07;6.63;;;;;;;;;;6256203;22;20075;-86
2022/06/02 08:33:27;;;;;;;10.27;6.20;;;;;;;;;;6231568;22;20054;-87
2022/06/02 08:36:03;;;;;;;11.43;7.45;;;;;;;;;;6257141;22;20008;-85
2022/06/02 08:38:34;;;;;;;8.05;6.07;;;;;;;;;;6257890;22;20019;-86
2022/06/02 08:41:28;;;;;;;13.55;9.05;;;;;;;;;;6254262;22;20000;-89
2022/06/02 08:44:39;;;;;;;13.23;5.93;;;;;;;;;;6272458;22;20003;-86
2022/06/02 08:47:23;;;;;;;9.63;5.28;;;;;;;;;;6288241;22;20069;-87
2022/06/02 08:50:10;;;;;;;7.32;5.65;;;;;;;;;;6251943;22;20319;-87
2022/06/02 08:56:22;;;;;;;16.05;11.88;;;;;;;;;;6237271;22;20011;-79
2022/06/02 08:59:17;;;;;;;12.77;7.78;;;;;;;;;;6264984;22;20089;-86
2022/06/02 09:02:09;;;;;;;9.57;6.13;;;;;;;;;;6298693;22;20006;-87
2022/06/02 09:05:32;;;;;;;10.45;5.55;;;;;;;;;;6281622;22;20026;-88
2022/06/02 09:08:28;;;;;;;12.07;7.05;;;;;;;;;;6157922;23;20278;-80
2022/06/02 09:11:20;;;;;;;11.25;6.35;;;;;;;;;;6152081;23;20177;-82
2022/06/02 09:14:08;;;;;;;9.20;6.47;;;;;;;;;;6247479;22;20006;-81
2022/06/02 09:16:36;;;;;;;;;;;;;;;;;;6279147;22;20504;-83
2022/06/02 09:19:14;;;;;;;9.95;7.10;;;;;;;;;;6271326;22;19907;-84
2022/06/02 09:21:45;;;;;;;13.13;9.05;;;;;;;;;;6273926;22;20168;-82
2022/06/02 09:24:18;;;;;;;9.30;6.65;;;;;;;;;;6228621;22;20323;-85
2022/06/02 09:27:21;;;;;;;10.63;7.88;;;;;;;;;;6233175;22;20346;-87
2022/06/02 09:30:11;;;;;;;9.90;7.03;;;;;;;;;;6293948;22;20015;-88
2022/06/02 09:33:33;;;;;;;14.73;8.38;;;;;;;;;;6258260;22;20003;-88
2022/06/02 09:36:02;;;;;;;15.80;9.68;;;;;;;;;;6259431;22;19999;-87
2022/06/02 09:39:26;;;;;;;15.98;8.25;;;;;;;;;;6231344;22;20074;-85
2022/06/02 09:42:11;;;;;;;14.55;5.63;;;;;;;;;;6108858;23;20389;-87
2022/06/02 09:45:18;;;;;;;11.43;5.97;;;;;;;;;;6108598;23;20010;-87
2022/06/02 09:47:49;;;;;;;9.30;5.32;;;;;;;;;;6289242;22;20025;-87
2022/06/02 09:50:34;;;;;;;11.63;5.30;;;;;;;;;;6294283;22;20006;-85
2022/06/02 09:53:00;;;;;;;10.48;5.97;;;;;;;;;;6297121;22;20003;-85
2022/06/02 09:55:47;;;;;;;8.13;5.35;;;;;;;;;;6288289;22;20015;-85
2022/06/02 09:58:35;;;;;;;14.55;6.20;;;;;;;;;;6292762;22;20048;-85
2022/06/02 10:01:34;;;;;;;8.20;6.63;;;;;;;;;;6272798;22;20004;-87
2022/06/02 10:04:12;;;;;;;10.70;7.30;;;;;;;;;;6235084;22;20003;-86
2022/06/02 10:06:57;;;;;;;9.02;5.93;;;;;;;;;;6263169;22;20098;-85
2022/06/02 10:09:38;;;;;;;7.95;5.38;;;;;;;;;;6269577;22;20074;-85
2022/06/02 10:15:29;;;;;;;13.80;7.38;;;;;;;;;;6292951;22;20002;-83
2022/06/02 10:17:57;;;;;;;16.00;10.85;;;;;;;;;;6254720;22;20319;-87
2022/06/02 10:21:04;;;;;;;11.82;7.03;;;;;;;;;;6283003;22;20022;-88
2022/06/02 10:23:56;;;;;;;11.32;6.63;;;;;;;;;;6254791;22;20509;-85
2022/06/02 10:26:40;;;;;;;11.73;7.07;;;;;;;;;;6231757;22;20035;-86
2022/06/02 10:29:38;;;;;;;8.20;5.82;;;;;;;;;;6255465;22;20003;-83
2022/06/02 10:32:28;;;;;;;8.80;6.25;;;;;;;;;;6256549;22;20039;-81
2022/06/02 10:35:18;;;;;;;7.05;5.57;;;;;;;;;;6277733;22;20019;-81
2022/06/02 10:38:09;;;;;;;8.55;5.05;;;;;;;;;;6259766;22;20007;-84
2022/06/02 10:40:56;;;;;;;12.23;6.78;;;;;;;;;;6279555;22;20013;-83
2022/06/02 10:43:43;;;;;;;9.57;5.38;;;;;;;;;;6284941;22;20069;-85
2022/06/02 10:46:11;;;;;;;9.70;5.70;;;;;;;;;;6254635;22;20049;-82
2022/06/02 10:48:47;;;;;;;11.90;6.40;;;;;;;;;;6276940;22;20010;-82
2022/06/02 10:51:51;;;;;;;10.10;6.38;;;;;;;;;;6249000;22;20000;-83
2022/06/02 10:54:29;;;;;;;17.50;11.55;;;;;;;;;;6280889;22;20038;-82
2022/06/02 10:57:25;;;;;;;9.37;5.57;;;;;;;;;;6274854;22;20453;-83
2022/06/02 10:59:50;;;;;;;11.15;7.13;;;;;;;;;;6225074;22;20027;-84
2022/06/02 11:02:59;;;;;;;9.02;5.90;;;;;;;;;;6277801;22;20434;-83
2022/06/02 11:06:07;;;;;;;12.20;5.40;;;;;;;;;;6247625;22;20004;-83
2022/06/02 11:08:45;;;;;;;8.70;5.75;;;;;;;;;;6249410;22;20015;-85
2022/06/02 11:11:41;;;;;;;9.13;6.25;;;;;;;;;;6276070;22;20023;-86
2022/06/02 11:14:27;;;;;;;8.80;6.30;;;;;;;;;;6278788;22;20007;-82
2022/06/02 11:17:17;;;;;;;10.35;5.43;;;;;;;;;;6262692;22;20003;-84
2022/06/02 11:20:11;;;;;;;7.45;4.93;;;;;;;;;;6225602;22;20065;-85
2022/06/02 11:22:59;;;;;;;8.55;5.10;;;;;;;;;;6273020;22;20007;-85
2022/06/02 11:25:27;;;;;;;14.00;9.55;;;;;;;;;;6281786;22;20014;-81
2022/06/02 11:28:04;;;;;;;11.73;8.53;;;;;;;;;;6282426;22;20430;-86
2022/06/02 11:30:51;;;;;;;9.30;5.43;;;;;;;;;;6274575;22;20349;-87
2022/06/02 11:34:01;;;;;;;8.80;5.25;;;;;;;;;;6274835;22;20007;-88
2022/06/02 11:36:38;;;;;;;28.30;19.00;;;;;;;;;;6125768;23;20037;-88
2022/06/02 11:39:08;;;;;;;10.45;7.50;;;;;;;;;;6098602;23;20010;-84
2022/06/02 11:42:08;;;;;;;19.15;6.30;;;;;;;;;;6200460;22;20011;-87
2022/06/02 11:44:52;;;;;;;14.95;9.18;;;;;;;;;;6272559;22;20611;-86
2022/06/02 11:47:18;;;;;;;16.65;9.98;;;;;;;;;;6286614;22;20018;-88
2022/06/02 11:50:07;;;;;;;9.90;6.45;;;;;;;;;;6277463;22;20011;-87
2022/06/02 11:52:52;;;;;;;9.43;5.53;;;;;;;;;;6276080;22;20086;-85
2022/06/02 11:55:21;;;;;;;13.45;7.32;;;;;;;;;;6272284;22;20236;-84
2022/06/02 11:57:58;;;;;;;11.10;6.30;;;;;;;;;;6273155;22;20394;-82
2022/06/02 12:00:36;;;;;;;9.75;5.88;;;;;;;;;;6275156;22;20011;-81
2022/06/02 12:03:11;;;;;;;7.40;5.90;;;;;;;;;;6273565;22;20015;-84
2022/06/02 12:06:04;;;;;;;10.82;5.75;;;;;;;;;;6274125;22;20418;-83
2022/06/02 12:08:41;;;;;;;8.57;6.22;;;;;;;;;;6279333;22;19996;-84
2022/06/02 12:11:44;;;;;;;11.00;5.45;;;;;;;;;;6283687;22;20007;-87
2022/06/02 12:14:18;;;;;;;9.85;5.53;;;;;;;;;;6276725;22;20003;-85
2022/06/02 12:16:43;;;;;;;8.02;5.30;;;;;;;;;;6274540;22;20012;-86
2022/06/02 12:19:22;;;;;;;8.82;5.18;;;;;;;;;;6276304;22;20003;-84
2022/06/02 12:21:53;;;;;;;10.25;5.60;;;;;;;;;;6274686;22;20027;-84
2022/06/02 12:24:28;;;;;;;11.02;5.40;;;;;;;;;;6276782;22;20517;-82
2022/06/02 12:27:18;;;;;;;10.80;5.93;;;;;;;;;;6281708;22;20082;-82
2022/06/02 12:30:14;;;;;;;9.75;6.82;;;;;;;;;;6283299;22;20003;-78
2022/06/02 12:33:03;;;;;;;18.70;13.40;;;;;;;;;;6282122;22;20082;-81
2022/06/02 12:35:50;;;;;;;32.58;20.05;;;;;;;;;;6273718;22;20429;-82
2022/06/02 12:38:51;;;;;;;13.90;5.18;;;;;;;;;;6274821;22;20003;-84
2022/06/02 12:41:35;;;;;;;15.15;8.23;;;;;;;;;;6190180;22;20004;-84
2022/06/02 12:44:31;;;;;;;19.38;13.93;;;;;;;;;;6273891;22;20065;-85
2022/06/02 12:47:02;;;;;;;14.45;7.93;;;;;;;;;;6272128;22;20050;-85
2022/06/02 12:49:51;;;;;;;11.48;5.13;;;;;;;;;;6273469;22;20010;-85
2022/06/02 12:52:42;;;;;;;10.27;6.30;;;;;;;;;;6251799;22;20219;-82
2022/06/02 12:55:32;;;;;;;15.25;7.03;;;;;;;;;;6221425;22;20086;-84
2022/06/02 12:58:09;;;;;;;10.02;7.10;;;;;;;;;;6284521;22;20081;-82
2022/06/02 13:01:12;;;;;;;13.82;6.18;;;;;;;;;;6274234;22;20003;-82
2022/06/02 13:04:10;;;;;;;17.00;8.90;;;;;;;;;;6273269;22;20315;-82
2022/06/02 13:06:56;;;;;;;23.38;15.73;;;;;;;;;;6273267;22;20000;-81
2022/06/02 13:09:55;;;;;;;16.88;10.43;;;;;;;;;;6273602;22;20007;-84
2022/06/02 13:12:36;;;;;;;8.85;5.85;;;;;;;;;;6275068;22;20035;-81
2022/06/02 13:15:34;;;;;;;14.85;6.28;;;;;;;;;;6273588;22;19995;-81
2022/06/02 13:18:02;;;;;;;10.50;5.68;;;;;;;;;;6284328;22;20004;-82
2022/06/02 13:20:43;;;;;;;12.82;8.13;;;;;;;;;;6296603;22;19988;-84
2022/06/02 13:23:18;;;;;;;8.43;5.00;;;;;;;;;;6303531;22;20030;-80
2022/06/02 13:26:15;;;;;;;33.20;23.17;;;;;;;;;;6302756;22;19992;-81
2022/06/02 13:28:59;;;;;;;8.25;5.07;;;;;;;;;;6303152;22;20007;-83
2022/06/02 13:31:36;;;;;;;15.25;8.93;;;;;;;;;;6292367;22;20078;-83
2022/06/02 13:34:14;;;;;;;8.98;5.85;;;;;;;;;;6282632;22;20015;-83
2022/06/02 13:37:10;;;;;;;14.63;9.68;;;;;;;;;;6247377;22;20389;-85
2022/06/02 13:40:01;;;;;;;12.95;7.72;;;;;;;;;;6251628;22;20011;-82
2022/06/02 13:42:45;;;;;;;11.35;7.70;;;;;;;;;;6274530;22;20008;-84
2022/06/02 13:45:22;;;;;;;13.15;9.45;;;;;;;;;;6274866;22;20007;-83
2022/06/02 13:48:14;;;;;;;12.32;5.28;;;;;;;;;;6274617;22;20006;-83
2022/06/02 13:51:01;;;;;;;12.15;5.75;;;;;;;;;;6273407;22;20007;-84
2022/06/02 13:53:36;;;;;;;17.40;7.60;;;;;;;;;;6274533;22;20050;-84
2022/06/02 13:59:34;;;;;;;13.90;6.82;;;;;;;;;;6275762;22;20015;-83
2022/06/02 14:02:23;;;;;;;28.45;19.05;;;;;;;;;;6262463;22;20054;-85
2022/06/02 14:04:57;;;;;;;12.02;8.55;;;;;;;;;;6251993;22;20008;-86
2022/06/02 14:07:57;;;;;;;9.40;6.38;;;;;;;;;;6276736;22;19995;-84
2022/06/02 14:10:40;;;;;;;13.55;5.85;;;;;;;;;;6277088;22;20003;-84
2022/06/02 14:13:15;;;;;;;10.93;5.70;;;;;;;;;;6276826;22;20089;-84
2022/06/02 14:16:00;;;;;;;10.52;6.00;;;;;;;;;;6276720;22;20018;-86
2022/06/02 14:18:53;;;;;;;14.02;6.20;;;;;;;;;;6250333;22;20000;-85
2022/06/02 14:21:21;;;;;;;15.05;5.85;;;;;;;;;;6276692;22;20358;-85
2022/06/02 14:23:55;;;;;;;11.75;5.97;;;;;;;;;;6254602;22;20010;-85
2022/06/02 14:26:30;;;;;;;13.38;6.05;;;;;;;;;;6280849;22;20007;-84
2022/06/02 14:29:16;;;;;;;8.00;5.15;;;;;;;;;;6276665;22;20052;-85
2022/06/02 14:32:29;;;;;;;11.93;5.63;;;;;;;;;;6253734;22;20007;-85
2022/06/02 14:35:06;;;;;;;8.88;5.72;;;;;;;;;;6217162;22;20004;-84
2022/06/02 14:37:39;;;;;;;18.88;6.75;;;;;;;;;;6224810;22;20190;-84
2022/06/02 14:40:41;;;;;;;17.05;6.90;;;;;;;;;;6276492;22;20078;-84
2022/06/02 14:43:21;;;;;;;14.18;5.30;;;;;;;;;;6204008;22;20007;-84
2022/06/02 14:45:59;;;;;;;12.00;5.38;;;;;;;;;;6249529;22;20004;-87
2022/06/02 14:48:36;;;;;;;9.40;5.38;;;;;;;;;;6257219;22;19999;-84
2022/06/02 14:51:16;;;;;;;12.13;6.10;;;;;;;;;;6249631;22;20003;-84
2022/06/02 14:54:19;;;;;;;7.72;5.20;;;;;;;;;;6252543;22;20004;-86
2022/06/02 14:57:05;;;;;;;10.43;5.50;;;;;;;;;;6276384;22;20427;-84
2022/06/02 14:59:37;;;;;;;13.18;5.75;;;;;;;;;;6249296;22;20007;-84
2022/06/02 15:02:31;;;;;;;14.52;5.70;;;;;;;;;;6249898;22;20382;-85
2022/06/02 15:05:30;;;;;;;11.30;5.60;;;;;;;;;;6175828;22;20082;-84
2022/06/02 15:07:58;;;;;;;19.15;5.70;;;;;;;;;;6276040;22;20008;-84
2022/06/02 15:10:45;;;;;;;16.60;5.95;;;;;;;;;;6251627;22;20067;-84
2022/06/02 15:13:35;;;;;;;10.13;6.30;;;;;;;;;;6203328;22;20015;-84
2022/06/02 15:16:12;;;;;;;16.58;6.00;;;;;;;;;;6227964;22;20012;-85
2022/06/02 15:19:11;;;;;;;10.85;5.70;;;;;;;;;;6250450;22;20007;-83
2022/06/02 15:21:58;;;;;;;14.45;6.43;;;;;;;;;;6276203;22;20068;-84
2022/06/02 15:24:42;;;;;;;17.67;5.82;;;;;;;;;;6274555;22;20320;-84
2022/06/02 15:27:17;;;;;;;14.45;6.07;;;;;;;;;;6274929;22;20422;-85
2022/06/02 15:29:49;;;;;;;9.13;5.65;;;;;;;;;;6276151;22;20006;-85
2022/06/02 15:32:37;;;;;;;13.50;5.68;;;;;;;;;;6277513;22;19999;-82
2022/06/02 15:35:05;;;;;;;17.48;5.40;;;;;;;;;;6258806;22;20004;-84
2022/06/02 15:37:49;;;;;;;12.70;5.93;;;;;;;;;;6275834;22;19996;-84
2022/06/02 15:40:51;;;;;;;10.05;5.47;;;;;;;;;;6275758;22;20002;-85
2022/06/02 15:43:55;;;;;;;10.88;5.80;;;;;;;;;;6275785;22;20003;-85
2022/06/02 15:46:42;;;;;;;13.27;5.53;;;;;;;;;;6152461;23;20453;-85
2022/06/02 15:49:29;;;;;;;12.18;5.55;;;;;;;;;;6130667;23;20033;-85
2022/06/02 15:52:37;;;;;;;14.85;5.68;;;;;;;;;;6238856;22;20013;-86
2022/06/02 15:55:09;;;;;;;10.27;5.82;;;;;;;;;;6251775;22;20073;-85
2022/06/02 15:58:11;;;;;;;12.13;6.22;;;;;;;;;;6283958;22;20008;-86
2022/06/02 16:00:55;;;;;;;14.65;6.03;;;;;;;;;;6276438;22;20008;-85
2022/06/02 16:03:58;;;;;;;15.23;5.78;;;;;;;;;;6275878;22;20069;-85
2022/06/02 16:06:45;;;;;;;11.20;6.13;;;;;;;;;;6274827;22;20014;-83
2022/06/02 16:12:45;;;;;;;16.80;6.57;;;;;;;;;;6275971;22;20018;-85
2022/06/02 16:15:32;;;;;;;14.75;6.90;;;;;;;;;;6264449;22;20035;-86
2022/06/02 16:18:22;;;;;;;15.57;7.05;;;;;;;;;;6279027;22;19991;-85
2022/06/02 16:21:16;;;;;;;12.25;6.70;;;;;;;;;;6281707;22;20066;-86
2022/06/02 16:24:01;;;;;;;16.23;7.22;;;;;;;;;;6275652;22;19999;-85
2022/06/02 16:26:44;;;;;;;17.25;7.50;;;;;;;;;;6276011;22;20043;-86
2022/06/02 16:29:16;;;;;;;13.73;7.00;;;;;;;;;;6248977;22;20007;-85
2022/06/02 16:32:00;;;;;;;18.83;7.55;;;;;;;;;;6275750;22;20030;-85
2022/06/02 16:34:29;;;;;;;15.27;7.25;;;;;;;;;;6276329;22;20384;-85
2022/06/02 16:37:42;;;;;;;13.05;7.22;;;;;;;;;;6275312;22;20011;-86
2022/06/02 16:40:22;;;;;;;17.52;6.90;;;;;;;;;;6127785;23;20012;-85
2022/06/02 16:43:25;;;;;;;19.85;8.52;;;;;;;;;;6280335;22;20411;-85
2022/06/02 16:46:08;;;;;;;17.67;7.90;;;;;;;;;;6275844;22;19999;-84
2022/06/02 16:48:42;;;;;;;13.27;8.02;;;;;;;;;;6275440;22;20050;-85
2022/06/02 16:51:27;;;;;;;21.88;7.05;;;;;;;;;;6275425;22;20022;-85
2022/06/02 16:54:22;;;;;;;11.95;6.57;;;;;;;;;;6274057;22;20342;-85
2022/06/02 16:56:51;;;;;;;12.07;7.13;;;;;;;;;;6275289;22;20000;-85
2022/06/02 16:59:19;;;;;;;14.82;6.75;;;;;;;;;;6275521;22;20353;-86